sensor_id;sensor_type;location;lat;lon;timestamp;temperature;humidity
13093;DHT22;6612;49.568;11.000;2023-03-03T00:01:12;6.10;44.20
13093;DHT22;6612;49.568;11.000;2023-03-03T00:03:40;6.00;44.10
13093;DHT22;6612;49.568;11.000;2023-03-03T00:06:09;6.00;44.20
13093;DHT22;6612;49.568;11.000;2023-03-03T00:08:38;6.00;44.20
13093;DHT22;6612;49.568;11.000;2023-03-03T00:11:06;5.90;44.20
13093;DHT22;6612;49.568;11.000;2023-03-03T00:13:40;5.90;44.30
13093;DHT22;6612;49.568;11.000;2023-03-03T00:16:16;5.90;44.50
13093;DHT22;6612;49.568;11.000;2023-03-03T00:18:45;5.80;44.40
13093;DHT22;6612;49.568;11.000;2023-03-03T00:21:28;5.80;44.40
13093;DHT22;6612;49.568;11.000;2023-03-03T00:24:16;5.80;44.70
13093;DHT22;6612;49.568;11.000;2023-03-03T00:26:44;5.70;44.80
13093;DHT22;6612;49.568;11.000;2023-03-03T00:29:30;5.70;44.30
13093;DHT22;6612;49.568;11.000;2023-03-03T00:32:15;5.60;44.70
13093;DHT22;6612;49.568;11.000;2023-03-03T00:34:44;5.60;44.60
13093;DHT22;6612;49.568;11.000;2023-03-03T00:37:27;5.60;45.00
13093;DHT22;6612;49.568;11.000;2023-03-03T00:42:41;5.50;44.60
13093;DHT22;6612;49.568;11.000;2023-03-03T00:45:23;5.50;44.50
13093;DHT22;6612;49.568;11.000;2023-03-03T00:47:52;5.40;44.80
13093;DHT22;6612;49.568;11.000;2023-03-03T00:50:28;5.40;44.60
13093;DHT22;6612;49.568;11.000;2023-03-03T00:53:01;5.40;44.90
13093;DHT22;6612;49.568;11.000;2023-03-03T00:55:30;5.30;45.00
13093;DHT22;6612;49.568;11.000;2023-03-03T00:57:59;5.30;44.80
13093;DHT22;6612;49.568;11.000;2023-03-03T01:00:25;5.20;44.70
13093;DHT22;6612;49.568;11.000;2023-03-03T01:02:52;5.20;45.40
13093;DHT22;6612;49.568;11.000;2023-03-03T01:05:20;5.30;44.90
13093;DHT22;6612;49.568;11.000;2023-03-03T01:07:47;5.20;44.90
13093;DHT22;6612;49.568;11.000;2023-03-03T01:10:14;5.10;44.80
13093;DHT22;6612;49.568;11.000;2023-03-03T01:12:42;5.10;45.00
13093;DHT22;6612;49.568;11.000;2023-03-03T01:15:10;5.10;45.00
13093;DHT22;6612;49.568;11.000;2023-03-03T01:17:38;5.10;45.00
13093;DHT22;6612;49.568;11.000;2023-03-03T01:20:07;5.10;45.10
13093;DHT22;6612;49.568;11.000;2023-03-03T01:22:34;5.00;45.00
13093;DHT22;6612;49.568;11.000;2023-03-03T01:25:01;5.00;45.10
13093;DHT22;6612;49.568;11.000;2023-03-03T01:27:29;5.00;45.10
13093;DHT22;6612;49.568;11.000;2023-03-03T01:29:58;5.00;45.10
13093;DHT22;6612;49.568;11.000;2023-03-03T01:32:26;5.00;45.20
13093;DHT22;6612;49.568;11.000;2023-03-03T01:34:53;4.90;45.10
13093;DHT22;6612;49.568;11.000;2023-03-03T01:37:20;4.90;45.10
13093;DHT22;6612;49.568;11.000;2023-03-03T01:39:49;4.90;45.10
13093;DHT22;6612;49.568;11.000;2023-03-03T01:42:16;4.90;45.20
13093;DHT22;6612;49.568;11.000;2023-03-03T01:44:43;4.90;45.20
13093;DHT22;6612;49.568;11.000;2023-03-03T01:47:12;4.80;45.10
13093;DHT22;6612;49.568;11.000;2023-03-03T01:49:44;4.80;45.30
13093;DHT22;6612;49.568;11.000;2023-03-03T01:52:20;4.80;45.30
13093;DHT22;6612;49.568;11.000;2023-03-03T01:54:56;4.80;45.40
13093;DHT22;6612;49.568;11.000;2023-03-03T01:57:30;4.70;45.90
13093;DHT22;6612;49.568;11.000;2023-03-03T01:59:59;4.70;45.30
13093;DHT22;6612;49.568;11.000;2023-03-03T02:02:30;4.70;45.30
13093;DHT22;6612;49.568;11.000;2023-03-03T02:04:57;4.70;45.40
13093;DHT22;6612;49.568;11.000;2023-03-03T02:07:25;4.60;45.20
13093;DHT22;6612;49.568;11.000;2023-03-03T02:09:58;4.60;45.30
13093;DHT22;6612;49.568;11.000;2023-03-03T02:12:33;4.60;46.10
13093;DHT22;6612;49.568;11.000;2023-03-03T02:15:15;4.50;45.50
13093;DHT22;6612;49.568;11.000;2023-03-03T02:17:43;4.60;45.80
13093;DHT22;6612;49.568;11.000;2023-03-03T02:20:13;4.40;45.40
13093;DHT22;6612;49.568;11.000;2023-03-03T02:22:48;4.50;45.60
13093;DHT22;6612;49.568;11.000;2023-03-03T02:25:23;4.50;45.80
13093;DHT22;6612;49.568;11.000;2023-03-03T02:27:53;4.50;45.70
13093;DHT22;6612;49.568;11.000;2023-03-03T02:30:24;4.50;45.70
13093;DHT22;6612;49.568;11.000;2023-03-03T02:32:51;4.40;45.70
13093;DHT22;6612;49.568;11.000;2023-03-03T02:35:33;4.40;45.60
13093;DHT22;6612;49.568;11.000;2023-03-03T02:38:19;4.40;46.10
13093;DHT22;6612;49.568;11.000;2023-03-03T02:40:55;4.30;46.10
13093;DHT22;6612;49.568;11.000;2023-03-03T02:43:30;4.30;45.80
13093;DHT22;6612;49.568;11.000;2023-03-03T02:45:58;4.30;45.80
13093;DHT22;6612;49.568;11.000;2023-03-03T02:48:25;4.20;45.70
13093;DHT22;6612;49.568;11.000;2023-03-03T02:50:52;4.20;45.70
13093;DHT22;6612;49.568;11.000;2023-03-03T02:53:19;4.20;45.90
13093;DHT22;6612;49.568;11.000;2023-03-03T02:55:46;4.20;45.90
13093;DHT22;6612;49.568;11.000;2023-03-03T02:58:13;4.20;46.00
13093;DHT22;6612;49.568;11.000;2023-03-03T03:00:41;4.10;46.00
13093;DHT22;6612;49.568;11.000;2023-03-03T03:03:08;4.00;46.00
13093;DHT22;6612;49.568;11.000;2023-03-03T03:05:35;4.10;46.10
13093;DHT22;6612;49.568;11.000;2023-03-03T03:08:02;4.10;46.20
13093;DHT22;6612;49.568;11.000;2023-03-03T03:10:28;4.10;46.20
13093;DHT22;6612;49.568;11.000;2023-03-03T03:12:55;4.00;46.20
13093;DHT22;6612;49.568;11.000;2023-03-03T03:15:22;4.00;46.20
13093;DHT22;6612;49.568;11.000;2023-03-03T03:17:50;4.00;46.30
13093;DHT22;6612;49.568;11.000;2023-03-03T03:20:17;4.00;46.40
13093;DHT22;6612;49.568;11.000;2023-03-03T03:22:44;4.00;46.30
13093;DHT22;6612;49.568;11.000;2023-03-03T03:25:11;4.00;46.40
13093;DHT22;6612;49.568;11.000;2023-03-03T03:27:38;4.00;46.50
13093;DHT22;6612;49.568;11.000;2023-03-03T03:30:06;3.90;46.40
13093;DHT22;6612;49.568;11.000;2023-03-03T03:32:33;3.90;46.50
13093;DHT22;6612;49.568;11.000;2023-03-03T03:35:02;3.90;46.50
13093;DHT22;6612;49.568;11.000;2023-03-03T03:37:29;3.90;46.60
13093;DHT22;6612;49.568;11.000;2023-03-03T03:39:55;3.90;46.50
13093;DHT22;6612;49.568;11.000;2023-03-03T03:42:22;3.90;46.60
13093;DHT22;6612;49.568;11.000;2023-03-03T03:44:49;3.80;46.60
13093;DHT22;6612;49.568;11.000;2023-03-03T03:47:16;3.80;46.60
13093;DHT22;6612;49.568;11.000;2023-03-03T03:49:43;3.80;47.40
13093;DHT22;6612;49.568;11.000;2023-03-03T03:52:11;3.80;47.40
13093;DHT22;6612;49.568;11.000;2023-03-03T03:54:38;3.80;46.90
13093;DHT22;6612;49.568;11.000;2023-03-03T03:57:05;3.80;46.80
13093;DHT22;6612;49.568;11.000;2023-03-03T03:59:32;3.80;46.80
13093;DHT22;6612;49.568;11.000;2023-03-03T04:01:59;3.70;46.80
13093;DHT22;6612;49.568;11.000;2023-03-03T04:04:26;3.70;46.80
13093;DHT22;6612;49.568;11.000;2023-03-03T04:06:53;3.70;46.90
13093;DHT22;6612;49.568;11.000;2023-03-03T04:09:21;3.70;46.90
13093;DHT22;6612;49.568;11.000;2023-03-03T04:11:48;3.80;47.10
13093;DHT22;6612;49.568;11.000;2023-03-03T04:14:15;3.60;46.90
13093;DHT22;6612;49.568;11.000;2023-03-03T04:16:42;3.70;47.00
13093;DHT22;6612;49.568;11.000;2023-03-03T04:19:09;3.70;47.10
13093;DHT22;6612;49.568;11.000;2023-03-03T04:21:36;3.60;47.00
13093;DHT22;6612;49.568;11.000;2023-03-03T04:24:03;3.70;47.10
13093;DHT22;6612;49.568;11.000;2023-03-03T04:26:31;3.60;47.10
13093;DHT22;6612;49.568;11.000;2023-03-03T04:28:58;3.60;47.10
13093;DHT22;6612;49.568;11.000;2023-03-03T04:31:26;3.60;47.20
13093;DHT22;6612;49.568;11.000;2023-03-03T04:33:53;3.60;47.20
13093;DHT22;6612;49.568;11.000;2023-03-03T04:36:20;3.60;47.30
13093;DHT22;6612;49.568;11.000;2023-03-03T04:38:47;3.50;47.30
13093;DHT22;6612;49.568;11.000;2023-03-03T04:41:15;3.50;47.40
13093;DHT22;6612;49.568;11.000;2023-03-03T04:43:43;3.50;47.40
13093;DHT22;6612;49.568;11.000;2023-03-03T04:46:10;3.50;47.50
13093;DHT22;6612;49.568;11.000;2023-03-03T04:48:37;3.50;47.50
13093;DHT22;6612;49.568;11.000;2023-03-03T04:51:04;3.50;47.50
13093;DHT22;6612;49.568;11.000;2023-03-03T04:53:31;3.50;47.50
13093;DHT22;6612;49.568;11.000;2023-03-03T04:55:58;3.40;47.50
13093;DHT22;6612;49.568;11.000;2023-03-03T04:58:25;3.40;47.50
13093;DHT22;6612;49.568;11.000;2023-03-03T05:00:55;3.50;47.70
13093;DHT22;6612;49.568;11.000;2023-03-03T05:03:22;3.40;47.80
13093;DHT22;6612;49.568;11.000;2023-03-03T05:05:51;3.30;47.60
13093;DHT22;6612;49.568;11.000;2023-03-03T05:08:18;3.30;47.70
13093;DHT22;6612;49.568;11.000;2023-03-03T05:10:45;3.40;47.80
13093;DHT22;6612;49.568;11.000;2023-03-03T05:13:12;3.40;47.90
13093;DHT22;6612;49.568;11.000;2023-03-03T05:15:40;3.40;47.90
13093;DHT22;6612;49.568;11.000;2023-03-03T05:18:09;3.40;47.90
13093;DHT22;6612;49.568;11.000;2023-03-03T05:20:39;3.40;48.00
13093;DHT22;6612;49.568;11.000;2023-03-03T05:23:06;3.40;48.10
13093;DHT22;6612;49.568;11.000;2023-03-03T05:25:33;3.40;48.10
13093;DHT22;6612;49.568;11.000;2023-03-03T05:28:00;3.40;48.20
13093;DHT22;6612;49.568;11.000;2023-03-03T05:30:29;3.40;48.20
13093;DHT22;6612;49.568;11.000;2023-03-03T05:32:56;3.30;48.10
13093;DHT22;6612;49.568;11.000;2023-03-03T05:35:25;3.30;48.10
13093;DHT22;6612;49.568;11.000;2023-03-03T05:37:53;3.30;48.20
13093;DHT22;6612;49.568;11.000;2023-03-03T05:40:20;3.30;48.10
13093;DHT22;6612;49.568;11.000;2023-03-03T05:42:47;3.40;48.90
13093;DHT22;6612;49.568;11.000;2023-03-03T05:45:14;3.30;48.20
13093;DHT22;6612;49.568;11.000;2023-03-03T05:47:41;3.30;48.30
13093;DHT22;6612;49.568;11.000;2023-03-03T05:50:09;3.30;48.30
13093;DHT22;6612;49.568;11.000;2023-03-03T05:52:38;3.30;48.40
13093;DHT22;6612;49.568;11.000;2023-03-03T05:55:05;3.30;48.40
13093;DHT22;6612;49.568;11.000;2023-03-03T05:57:32;3.30;48.50
13093;DHT22;6612;49.568;11.000;2023-03-03T06:00:00;3.20;48.50
13093;DHT22;6612;49.568;11.000;2023-03-03T06:02:27;3.20;48.50
13093;DHT22;6612;49.568;11.000;2023-03-03T06:04:54;3.20;48.60
13093;DHT22;6612;49.568;11.000;2023-03-03T06:07:21;3.20;48.70
13093;DHT22;6612;49.568;11.000;2023-03-03T06:09:49;3.20;48.80
13093;DHT22;6612;49.568;11.000;2023-03-03T06:12:16;3.20;49.50
13093;DHT22;6612;49.568;11.000;2023-03-03T06:14:43;3.30;49.00
13093;DHT22;6612;49.568;11.000;2023-03-03T06:17:10;3.30;49.10
13093;DHT22;6612;49.568;11.000;2023-03-03T06:19:37;3.30;49.10
13093;DHT22;6612;49.568;11.000;2023-03-03T06:22:06;3.30;49.20
13093;DHT22;6612;49.568;11.000;2023-03-03T06:24:33;3.30;49.30
13093;DHT22;6612;49.568;11.000;2023-03-03T06:27:02;3.40;49.40
13093;DHT22;6612;49.568;11.000;2023-03-03T06:29:29;3.40;49.60
13093;DHT22;6612;49.568;11.000;2023-03-03T06:31:56;3.40;49.50
13093;DHT22;6612;49.568;11.000;2023-03-03T06:34:22;3.40;49.60
13093;DHT22;6612;49.568;11.000;2023-03-03T06:36:49;3.50;49.70
13093;DHT22;6612;49.568;11.000;2023-03-03T06:39:16;3.60;50.00
13093;DHT22;6612;49.568;11.000;2023-03-03T06:41:43;3.70;50.60
13093;DHT22;6612;49.568;11.000;2023-03-03T06:44:12;3.90;51.20
13093;DHT22;6612;49.568;11.000;2023-03-03T06:46:39;4.10;51.40
13093;DHT22;6612;49.568;11.000;2023-03-03T06:49:05;4.30;51.40
13093;DHT22;6612;49.568;11.000;2023-03-03T06:51:34;4.50;51.10
13093;DHT22;6612;49.568;11.000;2023-03-03T06:54:10;4.60;50.70
13093;DHT22;6612;49.568;11.000;2023-03-03T06:56:37;4.80;50.60
13093;DHT22;6612;49.568;11.000;2023-03-03T06:59:12;4.90;50.10
13093;DHT22;6612;49.568;11.000;2023-03-03T07:01:39;5.00;50.30
13093;DHT22;6612;49.568;11.000;2023-03-03T07:04:14;5.10;50.30
13093;DHT22;6612;49.568;11.000;2023-03-03T07:06:42;5.30;51.00
13093;DHT22;6612;49.568;11.000;2023-03-03T07:09:24;5.50;51.50
13093;DHT22;6612;49.568;11.000;2023-03-03T07:11:53;5.80;52.10
13093;DHT22;6612;49.568;11.000;2023-03-03T07:14:23;6.20;52.60
13093;DHT22;6612;49.568;11.000;2023-03-03T07:16:51;6.70;53.20
13093;DHT22;6612;49.568;11.000;2023-03-03T07:19:28;7.20;53.60
13093;DHT22;6612;49.568;11.000;2023-03-03T07:21:57;7.70;53.60
13093;DHT22;6612;49.568;11.000;2023-03-03T07:24:28;8.20;53.70
13093;DHT22;6612;49.568;11.000;2023-03-03T07:26:59;8.80;53.70
13093;DHT22;6612;49.568;11.000;2023-03-03T07:29:33;9.30;52.60
13093;DHT22;6612;49.568;11.000;2023-03-03T07:32:01;9.80;52.20
13093;DHT22;6612;49.568;11.000;2023-03-03T07:34:35;10.30;51.20
13093;DHT22;6612;49.568;11.000;2023-03-03T07:37:09;10.80;50.80
13093;DHT22;6612;49.568;11.000;2023-03-03T07:39:41;11.30;50.40
13093;DHT22;6612;49.568;11.000;2023-03-03T07:42:16;11.80;50.20
13093;DHT22;6612;49.568;11.000;2023-03-03T07:44:45;12.30;49.50
13093;DHT22;6612;49.568;11.000;2023-03-03T07:47:21;12.80;49.50
13093;DHT22;6612;49.568;11.000;2023-03-03T07:49:50;13.20;48.20
13093;DHT22;6612;49.568;11.000;2023-03-03T07:52:25;13.70;48.10
13093;DHT22;6612;49.568;11.000;2023-03-03T07:54:53;14.00;47.10
13093;DHT22;6612;49.568;11.000;2023-03-03T07:57:23;14.40;46.50
13093;DHT22;6612;49.568;11.000;2023-03-03T07:59:53;14.60;45.70
13093;DHT22;6612;49.568;11.000;2023-03-03T08:02:34;14.80;44.70
13093;DHT22;6612;49.568;11.000;2023-03-03T08:05:26;14.90;43.60
13093;DHT22;6612;49.568;11.000;2023-03-03T08:07:54;15.00;42.80
13093;DHT22;6612;49.568;11.000;2023-03-03T08:10:37;15.00;43.80
13093;DHT22;6612;49.568;11.000;2023-03-03T08:13:16;15.00;41.80
13093;DHT22;6612;49.568;11.000;2023-03-03T08:15:45;14.90;41.20
13093;DHT22;6612;49.568;11.000;2023-03-03T08:18:21;14.80;41.10
13093;DHT22;6612;49.568;11.000;2023-03-03T08:20:51;14.60;40.50
13093;DHT22;6612;49.568;11.000;2023-03-03T08:23:19;14.40;40.50
13093;DHT22;6612;49.568;11.000;2023-03-03T08:25:47;14.30;40.70
13093;DHT22;6612;49.568;11.000;2023-03-03T08:28:15;14.10;41.20
13093;DHT22;6612;49.568;11.000;2023-03-03T08:30:43;14.00;40.70
13093;DHT22;6612;49.568;11.000;2023-03-03T08:33:11;13.90;40.70
13093;DHT22;6612;49.568;11.000;2023-03-03T08:35:39;13.70;40.70
13093;DHT22;6612;49.568;11.000;2023-03-03T08:38:06;13.60;41.10
13093;DHT22;6612;49.568;11.000;2023-03-03T08:40:33;13.60;41.60
13093;DHT22;6612;49.568;11.000;2023-03-03T08:43:02;13.70;42.30
13093;DHT22;6612;49.568;11.000;2023-03-03T08:45:29;13.90;42.80
13093;DHT22;6612;49.568;11.000;2023-03-03T08:47:57;14.10;43.00
13093;DHT22;6612;49.568;11.000;2023-03-03T08:50:27;14.40;42.70
13093;DHT22;6612;49.568;11.000;2023-03-03T08:52:54;14.60;41.50
13093;DHT22;6612;49.568;11.000;2023-03-03T08:55:21;14.60;40.60
13093;DHT22;6612;49.568;11.000;2023-03-03T08:57:48;14.60;39.90
13093;DHT22;6612;49.568;11.000;2023-03-03T09:00:16;14.40;39.10
13093;DHT22;6612;49.568;11.000;2023-03-03T09:02:43;14.10;38.70
13093;DHT22;6612;49.568;11.000;2023-03-03T09:05:10;13.90;38.60
13093;DHT22;6612;49.568;11.000;2023-03-03T09:07:40;13.70;38.70
13093;DHT22;6612;49.568;11.000;2023-03-03T09:10:08;13.40;38.70
13093;DHT22;6612;49.568;11.000;2023-03-03T09:12:38;13.30;39.30
13093;DHT22;6612;49.568;11.000;2023-03-03T09:15:19;13.10;39.80
13093;DHT22;6612;49.568;11.000;2023-03-03T09:17:46;13.10;40.30
13093;DHT22;6612;49.568;11.000;2023-03-03T09:20:30;13.20;41.10
13093;DHT22;6612;49.568;11.000;2023-03-03T09:22:59;13.30;40.70
13093;DHT22;6612;49.568;11.000;2023-03-03T09:25:42;13.50;41.10
13093;DHT22;6612;49.568;11.000;2023-03-03T09:28:21;13.50;41.40
13093;DHT22;6612;49.568;11.000;2023-03-03T09:30:49;13.60;40.30
13093;DHT22;6612;49.568;11.000;2023-03-03T09:33:27;13.60;40.40
13093;DHT22;6612;49.568;11.000;2023-03-03T09:36:00;13.60;40.20
13093;DHT22;6612;49.568;11.000;2023-03-03T09:38:31;13.60;40.40
13093;DHT22;6612;49.568;11.000;2023-03-03T09:41:25;13.60;40.90
13093;DHT22;6612;49.568;11.000;2023-03-03T09:44:20;13.70;41.10
13093;DHT22;6612;49.568;11.000;2023-03-03T09:46:59;13.80;40.80
13093;DHT22;6612;49.568;11.000;2023-03-03T09:49:32;14.00;41.20
13093;DHT22;6612;49.568;11.000;2023-03-03T09:52:10;14.10;41.70
13093;DHT22;6612;49.568;11.000;2023-03-03T09:54:55;14.40;41.40
13093;DHT22;6612;49.568;11.000;2023-03-03T09:57:36;14.70;41.40
13093;DHT22;6612;49.568;11.000;2023-03-03T10:00:31;15.00;41.40
13093;DHT22;6612;49.568;11.000;2023-03-03T10:06:02;15.60;40.20
13093;DHT22;6612;49.568;11.000;2023-03-03T10:08:43;15.80;40.40
13093;DHT22;6612;49.568;11.000;2023-03-03T10:11:18;15.90;39.50
13093;DHT22;6612;49.568;11.000;2023-03-03T10:14:00;16.00;39.00
13093;DHT22;6612;49.568;11.000;2023-03-03T10:16:47;16.00;38.60
13093;DHT22;6612;49.568;11.000;2023-03-03T10:19:35;16.00;38.20
13093;DHT22;6612;49.568;11.000;2023-03-03T10:22:12;16.00;38.80
13093;DHT22;6612;49.568;11.000;2023-03-03T10:24:48;16.10;39.30
13093;DHT22;6612;49.568;11.000;2023-03-03T10:27:34;16.20;39.50
13093;DHT22;6612;49.568;11.000;2023-03-03T10:30:07;16.40;38.80
13093;DHT22;6612;49.568;11.000;2023-03-03T10:32:45;16.50;38.60
13093;DHT22;6612;49.568;11.000;2023-03-03T10:35:29;16.60;37.80
13093;DHT22;6612;49.568;11.000;2023-03-03T10:38:25;16.50;37.20
13093;DHT22;6612;49.568;11.000;2023-03-03T10:41:02;16.50;36.90
13093;DHT22;6612;49.568;11.000;2023-03-03T10:43:52;16.50;37.80
13093;DHT22;6612;49.568;11.000;2023-03-03T10:46:51;16.50;37.10
13093;DHT22;6612;49.568;11.000;2023-03-03T10:49:33;16.50;37.10
13093;DHT22;6612;49.568;11.000;2023-03-03T10:52:21;16.70;37.70
13093;DHT22;6612;49.568;11.000;2023-03-03T10:55:12;16.70;37.30
13093;DHT22;6612;49.568;11.000;2023-03-03T10:57:51;16.80;37.30
13093;DHT22;6612;49.568;11.000;2023-03-03T11:00:24;16.90;37.10
13093;DHT22;6612;49.568;11.000;2023-03-03T11:03:19;16.90;36.50
13093;DHT22;6612;49.568;11.000;2023-03-03T11:05:50;16.80;35.90
13093;DHT22;6612;49.568;11.000;2023-03-03T11:08:23;16.70;36.10
13093;DHT22;6612;49.568;11.000;2023-03-03T11:10:59;16.60;35.70
13093;DHT22;6612;49.568;11.000;2023-03-03T11:13:38;16.50;35.30
13093;DHT22;6612;49.568;11.000;2023-03-03T11:16:27;16.30;35.20
13093;DHT22;6612;49.568;11.000;2023-03-03T11:19:07;16.10;35.00
13093;DHT22;6612;49.568;11.000;2023-03-03T11:21:42;15.90;35.00
13093;DHT22;6612;49.568;11.000;2023-03-03T11:24:19;15.70;35.10
13093;DHT22;6612;49.568;11.000;2023-03-03T11:27:02;15.50;34.90
13093;DHT22;6612;49.568;11.000;2023-03-03T11:29:38;15.30;34.90
13093;DHT22;6612;49.568;11.000;2023-03-03T11:32:18;15.10;35.20
13093;DHT22;6612;49.568;11.000;2023-03-03T11:34:55;14.90;35.10
13093;DHT22;6612;49.568;11.000;2023-03-03T11:37:26;14.80;35.50
13093;DHT22;6612;49.568;11.000;2023-03-03T11:39:57;14.60;35.70
13093;DHT22;6612;49.568;11.000;2023-03-03T11:42:32;14.50;35.90
13093;DHT22;6612;49.568;11.000;2023-03-03T11:45:10;14.40;35.80
13093;DHT22;6612;49.568;11.000;2023-03-03T11:47:46;14.30;35.80
13093;DHT22;6612;49.568;11.000;2023-03-03T11:50:20;14.20;35.70
13093;DHT22;6612;49.568;11.000;2023-03-03T11:52:52;14.10;35.80
13093;DHT22;6612;49.568;11.000;2023-03-03T11:55:27;14.10;36.00
13093;DHT22;6612;49.568;11.000;2023-03-03T11:58:05;14.00;36.10
13093;DHT22;6612;49.568;11.000;2023-03-03T12:00:36;13.90;36.00
13093;DHT22;6612;49.568;11.000;2023-03-03T12:03:25;13.80;36.10
13093;DHT22;6612;49.568;11.000;2023-03-03T12:06:10;13.80;36.00
13093;DHT22;6612;49.568;11.000;2023-03-03T12:08:52;13.70;36.40
13093;DHT22;6612;49.568;11.000;2023-03-03T12:11:25;13.70;36.50
13093;DHT22;6612;49.568;11.000;2023-03-03T12:13:57;13.60;36.60
13093;DHT22;6612;49.568;11.000;2023-03-03T12:16:35;13.60;36.70
13093;DHT22;6612;49.568;11.000;2023-03-03T12:19:17;13.60;36.70
13093;DHT22;6612;49.568;11.000;2023-03-03T12:25:25;13.50;36.10
13093;DHT22;6612;49.568;11.000;2023-03-03T12:27:59;13.50;36.30
13093;DHT22;6612;49.568;11.000;2023-03-03T12:30:46;13.50;36.50
13093;DHT22;6612;49.568;11.000;2023-03-03T12:33:28;13.40;36.90
13093;DHT22;6612;49.568;11.000;2023-03-03T12:36:08;13.40;36.40
13093;DHT22;6612;49.568;11.000;2023-03-03T12:38:41;13.40;36.50
13093;DHT22;6612;49.568;11.000;2023-03-03T12:41:18;13.40;36.50
13093;DHT22;6612;49.568;11.000;2023-03-03T12:43:56;13.40;36.40
13093;DHT22;6612;49.568;11.000;2023-03-03T12:46:30;13.40;36.30
13093;DHT22;6612;49.568;11.000;2023-03-03T12:48:58;13.40;36.30
13093;DHT22;6612;49.568;11.000;2023-03-03T12:51:41;13.40;36.30
13093;DHT22;6612;49.568;11.000;2023-03-03T12:54:28;13.40;36.10
13093;DHT22;6612;49.568;11.000;2023-03-03T12:56:58;13.50;36.10
13093;DHT22;6612;49.568;11.000;2023-03-03T12:59:35;13.40;36.20
13093;DHT22;6612;49.568;11.000;2023-03-03T13:02:42;13.40;35.90
13093;DHT22;6612;49.568;11.000;2023-03-03T13:05:20;13.40;35.30
13093;DHT22;6612;49.568;11.000;2023-03-03T13:07:58;13.40;36.30
13093;DHT22;6612;49.568;11.000;2023-03-03T13:10:34;13.40;35.70
13093;DHT22;6612;49.568;11.000;2023-03-03T13:13:06;13.40;35.90
13093;DHT22;6612;49.568;11.000;2023-03-03T13:15:40;13.40;36.00
13093;DHT22;6612;49.568;11.000;2023-03-03T13:18:24;13.40;36.00
13093;DHT22;6612;49.568;11.000;2023-03-03T13:20:59;13.40;36.00
13093;DHT22;6612;49.568;11.000;2023-03-03T13:23:37;13.40;36.40
13093;DHT22;6612;49.568;11.000;2023-03-03T13:26:10;13.40;36.50
13093;DHT22;6612;49.568;11.000;2023-03-03T13:28:43;13.50;36.60
13093;DHT22;6612;49.568;11.000;2023-03-03T13:31:20;13.50;37.30
13093;DHT22;6612;49.568;11.000;2023-03-03T13:33:53;13.50;36.60
13093;DHT22;6612;49.568;11.000;2023-03-03T13:36:24;13.50;36.40
13093;DHT22;6612;49.568;11.000;2023-03-03T13:38:55;13.50;36.60
13093;DHT22;6612;49.568;11.000;2023-03-03T13:41:26;13.50;36.70
13093;DHT22;6612;49.568;11.000;2023-03-03T13:43:58;13.50;36.80
13093;DHT22;6612;49.568;11.000;2023-03-03T13:46:34;13.50;36.90
13093;DHT22;6612;49.568;11.000;2023-03-03T13:49:21;13.50;36.80
13093;DHT22;6612;49.568;11.000;2023-03-03T13:51:59;13.50;36.60
13093;DHT22;6612;49.568;11.000;2023-03-03T13:54:50;13.50;36.70
13093;DHT22;6612;49.568;11.000;2023-03-03T13:57:32;13.60;36.80
13093;DHT22;6612;49.568;11.000;2023-03-03T14:00:11;13.60;37.00
13093;DHT22;6612;49.568;11.000;2023-03-03T14:02:50;13.60;37.10
13093;DHT22;6612;49.568;11.000;2023-03-03T14:05:25;13.60;37.00
13093;DHT22;6612;49.568;11.000;2023-03-03T14:07:58;13.60;37.10
13093;DHT22;6612;49.568;11.000;2023-03-03T14:10:30;13.60;37.20
13093;DHT22;6612;49.568;11.000;2023-03-03T14:13:02;13.60;37.20
13093;DHT22;6612;49.568;11.000;2023-03-03T14:15:32;13.60;37.20
13093;DHT22;6612;49.568;11.000;2023-03-03T14:18:28;13.60;37.20
13093;DHT22;6612;49.568;11.000;2023-03-03T14:21:01;13.60;37.10
13093;DHT22;6612;49.568;11.000;2023-03-03T14:23:33;13.60;37.20
13093;DHT22;6612;49.568;11.000;2023-03-03T14:26:09;13.60;37.10
13093;DHT22;6612;49.568;11.000;2023-03-03T14:28:38;13.60;37.00
13093;DHT22;6612;49.568;11.000;2023-03-03T14:31:16;13.60;37.70
13093;DHT22;6612;49.568;11.000;2023-03-03T14:33:54;13.60;36.80
13093;DHT22;6612;49.568;11.000;2023-03-03T14:36:26;13.50;36.90
13093;DHT22;6612;49.568;11.000;2023-03-03T14:38:54;13.50;36.90
13093;DHT22;6612;49.568;11.000;2023-03-03T14:41:35;13.50;37.00
13093;DHT22;6612;49.568;11.000;2023-03-03T14:44:24;13.50;37.00
13093;DHT22;6612;49.568;11.000;2023-03-03T14:47:10;13.50;37.10
13093;DHT22;6612;49.568;11.000;2023-03-03T14:49:38;13.50;37.30
13093;DHT22;6612;49.568;11.000;2023-03-03T14:52:19;13.40;37.30
13093;DHT22;6612;49.568;11.000;2023-03-03T14:54:48;13.40;37.20
13093;DHT22;6612;49.568;11.000;2023-03-03T14:57:18;13.40;37.20
13093;DHT22;6612;49.568;11.000;2023-03-03T14:59:57;13.30;37.10
13093;DHT22;6612;49.568;11.000;2023-03-03T15:02:30;13.30;37.30
13093;DHT22;6612;49.568;11.000;2023-03-03T15:05:19;13.30;37.30
13093;DHT22;6612;49.568;11.000;2023-03-03T15:07:50;13.30;37.40
13093;DHT22;6612;49.568;11.000;2023-03-03T15:10:33;13.30;37.40
13093;DHT22;6612;49.568;11.000;2023-03-03T15:13:28;13.30;37.50
13093;DHT22;6612;49.568;11.000;2023-03-03T15:16:08;13.20;37.40
13093;DHT22;6612;49.568;11.000;2023-03-03T15:18:54;13.20;37.50
13093;DHT22;6612;49.568;11.000;2023-03-03T15:21:28;13.20;37.60
13093;DHT22;6612;49.568;11.000;2023-03-03T15:24:03;13.10;37.50
13093;DHT22;6612;49.568;11.000;2023-03-03T15:26:42;13.10;37.60
13093;DHT22;6612;49.568;11.000;2023-03-03T15:29:16;13.00;37.60
13093;DHT22;6612;49.568;11.000;2023-03-03T15:31:50;13.00;37.70
13093;DHT22;6612;49.568;11.000;2023-03-03T15:34:29;13.00;37.70
13093;DHT22;6612;49.568;11.000;2023-03-03T15:37:06;12.90;37.70
13093;DHT22;6612;49.568;11.000;2023-03-03T15:39:40;12.90;37.70
13093;DHT22;6612;49.568;11.000;2023-03-03T15:42:14;12.90;37.80
13093;DHT22;6612;49.568;11.000;2023-03-03T15:44:52;12.80;37.80
13093;DHT22;6612;49.568;11.000;2023-03-03T15:47:42;12.80;37.80
13093;DHT22;6612;49.568;11.000;2023-03-03T15:50:23;12.70;37.80
13093;DHT22;6612;49.568;11.000;2023-03-03T15:53:03;12.70;37.80
13093;DHT22;6612;49.568;11.000;2023-03-03T15:55:53;12.60;37.80
13093;DHT22;6612;49.568;11.000;2023-03-03T16:01:24;12.50;37.80
13093;DHT22;6612;49.568;11.000;2023-03-03T16:03:56;12.50;37.80
13093;DHT22;6612;49.568;11.000;2023-03-03T16:06:33;12.40;37.80
13093;DHT22;6612;49.568;11.000;2023-03-03T16:09:10;12.30;37.80
13093;DHT22;6612;49.568;11.000;2023-03-03T16:11:45;12.30;37.80
13093;DHT22;6612;49.568;11.000;2023-03-03T16:17:17;12.20;37.80
13093;DHT22;6612;49.568;11.000;2023-03-03T16:19:50;12.10;37.60
13093;DHT22;6612;49.568;11.000;2023-03-03T16:22:29;12.10;37.60
13093;DHT22;6612;49.568;11.000;2023-03-03T16:25:13;12.00;37.50
13093;DHT22;6612;49.568;11.000;2023-03-03T16:27:48;11.90;37.40
13093;DHT22;6612;49.568;11.000;2023-03-03T16:30:25;11.90;37.40